Time;durP1;ratioP1;P1;durP2;ratioP2;P2;SDS_P1;SDS_P2;PMS_P1;PMS_P2;Temp;Humidity;BMP_temperature;BMP_pressure;BME280_temperature;BME280_humidity;BME280_pressure;Samples;Min_cycle;Max_cycle;Signal;HPM_P1;HPM_P2
2022/08/08 00:01:41;;;;;;;7.43;4.57;;;;;;;10.99;91.11;102228.72;10387649;28;20041;-74
2022/08/08 00:06:53;;;;;;;7.35;5.35;;;;;;;10.88;91.38;102233.25;10382862;28;20095;-75
2022/08/08 00:11:59;;;;;;;9.10;4.97;;;;;;;10.85;92.31;102227.81;10378972;28;20037;-74
2022/08/08 00:17:09;;;;;;;8.50;5.15;;;;;;;10.81;92.83;102233.66;10383776;28;20552;-74
2022/08/08 00:22:14;;;;;;;9.40;6.93;;;;;;;10.72;93.31;102228.66;10389481;28;20550;-74
2022/08/08 00:27:15;;;;;;;9.95;5.15;;;;;;;10.68;94.02;102227.56;10423326;28;20392;-74
2022/08/08 00:32:24;;;;;;;8.70;5.93;;;;;;;10.62;94.00;102229.75;10406098;28;20048;-74
2022/08/08 00:37:55;;;;;;;8.77;5.65;;;;;;;10.65;94.50;102234.28;10407198;28;20072;-75
2022/08/08 00:43:14;;;;;;;10.35;6.07;;;;;;;10.67;94.90;102237.91;10440492;28;20393;-75
2022/08/08 00:48:45;;;;;;;9.00;6.82;;;;;;;10.69;95.16;102234.63;10399132;28;20397;-75
2022/08/08 00:53:46;;;;;;;10.40;7.55;;;;;;;10.74;96.10;102232.31;10398361;28;20033;-74
2022/08/08 00:59:11;;;;;;;13.60;8.25;;;;;;;10.76;96.44;102232.41;10398310;28;20465;-74
2022/08/08 01:04:50;;;;;;;12.93;7.57;;;;;;;10.75;96.35;102228.88;10399389;28;20037;-74
2022/08/08 01:10:19;;;;;;;9.15;6.30;;;;;;;10.74;96.97;102232.31;10421899;28;20068;-74
2022/08/08 01:15:49;;;;;;;11.60;5.95;;;;;;;10.70;97.25;102231.19;10410471;28;20037;-74
2022/08/08 01:21:30;;;;;;;9.52;7.38;;;;;;;10.55;97.14;102232.75;10428602;28;20048;-74
2022/08/08 01:26:56;;;;;;;13.68;8.10;;;;;;;10.41;97.63;102229.16;10406199;28;20144;-75
2022/08/08 01:32:19;;;;;;;13.90;7.25;;;;;;;10.36;98.35;102220.03;10432642;28;20040;-74
2022/08/08 01:37:28;;;;;;;11.63;6.65;;;;;;;10.28;98.99;102227.38;10446973;28;20041;-74
2022/08/08 01:43:04;;;;;;;10.05;8.02;;;;;;;10.25;99.49;102224.53;10405857;28;20116;-74
2022/08/08 01:48:37;;;;;;;14.95;9.90;;;;;;;10.25;100.00;102228.03;10388309;28;20052;-74
2022/08/08 01:53:50;;;;;;;15.48;10.25;;;;;;;10.18;100.00;102228.41;10363882;28;20037;-74
2022/08/08 01:59:09;;;;;;;21.33;11.63;;;;;;;10.25;100.00;102227.16;10364869;28;20038;-75
2022/08/08 02:04:19;;;;;;;20.13;12.85;;;;;;;10.27;100.00;102233.41;10399551;28;20038;-74
2022/08/08 02:09:43;;;;;;;20.83;12.30;;;;;;;10.19;100.00;102231.94;10406387;28;20124;-74
2022/08/08 02:15:00;;;;;;;15.52;11.23;;;;;;;10.12;100.00;102236.75;10404522;28;20045;-74
2022/08/08 02:20:20;;;;;;;18.42;12.73;;;;;;;10.08;100.00;102233.78;10388214;28;20037;-74
2022/08/08 02:25:29;;;;;;;14.85;10.13;;;;;;;10.05;100.00;102228.31;10363670;28;20497;-74
2022/08/08 02:31:11;;;;;;;15.00;9.85;;;;;;;9.97;100.00;102228.69;10346436;28;20132;-74
2022/08/08 02:36:12;;;;;;;15.50;11.38;;;;;;;9.92;100.00;102224.84;10363831;28;20096;-73
2022/08/08 02:41:31;;;;;;;21.10;11.00;;;;;;;9.84;100.00;102223.38;10365377;28;20061;-74
2022/08/08 02:47:06;;;;;;;19.98;13.68;;;;;;;9.82;100.00;102219.75;10405402;28;20049;-74
2022/08/08 02:52:34;;;;;;;22.17;16.13;;;;;;;9.89;100.00;102218.50;10359869;28;20037;-74
2022/08/08 02:57:44;;;;;;;25.20;15.82;;;;;;;9.90;100.00;102225.53;10404485;28;20105;-74
2022/08/08 03:03:09;;;;;;;23.80;17.13;;;;;;;9.95;100.00;102224.16;10404508;28;20046;-74
2022/08/08 03:08:27;;;;;;;25.00;17.38;;;;;;;9.95;100.00;102224.16;10403140;28;20131;-74
2022/08/08 03:13:53;;;;;;;21.80;16.20;;;;;;;9.96;100.00;102223.38;10402966;28;20399;-74
2022/08/08 03:19:00;;;;;;;25.05;17.20;;;;;;;9.98;100.00;102224.38;10403015;28;20048;-74
2022/08/08 03:24:01;;;;;;;23.98;16.58;;;;;;;9.90;100.00;102225.53;10386998;28;20037;-74
2022/08/08 03:29:03;;;;;;;23.67;16.95;;;;;;;9.86;100.00;102228.72;10403468;28;20039;-73
2022/08/08 03:34:03;;;;;;;24.40;16.27;;;;;;;9.83;100.00;102234.63;10400787;28;20036;-73
2022/08/08 03:39:04;;;;;;;24.13;18.55;;;;;;;9.81;100.00;102246.69;10403944;28;20512;-75
2022/08/08 03:44:05;;;;;;;45.22;20.73;;;;;;;9.81;100.00;102245.00;10383657;28;20044;-74
2022/08/08 03:49:05;;;;;;;28.27;19.00;;;;;;;9.86;100.00;102250.53;10384234;28;20079;-73
2022/08/08 03:54:06;;;;;;;32.70;18.98;;;;;;;9.88;100.00;102248.06;10400141;28;20033;-74
2022/08/08 03:59:06;;;;;;;37.25;20.90;;;;;;;9.90;100.00;102249.97;10401057;28;20042;-73
2022/08/08 04:04:07;;;;;;;37.80;22.88;;;;;;;9.95;100.00;102253.81;10399457;28;20127;-73
2022/08/08 04:09:07;;;;;;;26.92;18.10;;;;;;;9.89;100.00;102265.56;10382929;28;20386;-74
2022/08/08 04:14:08;;;;;;;34.63;21.27;;;;;;;9.95;100.00;102260.78;10400413;28;20176;-73
2022/08/08 04:19:09;;;;;;;36.88;22.15;;;;;;;9.96;100.00;102259.97;10400414;28;20384;-74
2022/08/08 04:24:09;;;;;;;27.95;21.75;;;;;;;10.10;100.00;102260.97;10382479;28;20038;-73
2022/08/08 04:29:10;;;;;;;36.00;22.83;;;;;;;10.23;100.00;102268.88;10401131;28;20120;-73
2022/08/08 04:34:10;;;;;;;34.08;21.63;;;;;;;10.26;100.00;102270.84;10383395;28;20051;-73
2022/08/08 04:39:11;;;;;;;35.75;22.25;;;;;;;10.32;100.00;102272.97;10399344;28;20554;-73
2022/08/08 04:44:11;;;;;;;28.63;20.65;;;;;;;10.41;100.00;102274.56;10397624;28;20048;-74
2022/08/08 04:49:12;;;;;;;35.17;23.10;;;;;;;10.52;100.00;102282.28;10399163;28;20033;-73
2022/08/08 04:54:17;;;;;;;29.52;20.83;;;;;;;10.64;100.00;102280.53;10431379;28;20572;-74
2022/08/08 04:59:20;;;;;;;31.60;22.10;;;;;;;10.72;100.00;102281.97;10421288;28;20033;-73
2022/08/08 05:04:20;;;;;;;32.20;21.92;;;;;;;10.82;100.00;102290.47;10396412;28;20479;-73
2022/08/08 05:09:21;;;;;;;27.13;20.50;;;;;;;10.97;100.00;102294.13;10408909;28;20183;-74
2022/08/08 05:14:22;;;;;;;27.70;20.83;;;;;;;11.10;100.00;102295.88;10399818;28;20605;-74
2022/08/08 05:19:22;;;;;;;29.20;21.10;;;;;;;11.23;100.00;102294.09;10379519;28;20062;-73
2022/08/08 05:24:23;;;;;;;32.22;20.67;;;;;;;11.36;100.00;102295.84;10430385;28;20108;-74
2022/08/08 05:29:24;;;;;;;39.60;28.17;;;;;;;11.80;100.00;102299.59;10353819;28;20117;-74
2022/08/08 05:34:35;;;;;;;29.08;21.38;;;;;;;11.99;100.00;102301.72;10395894;28;20041;-75
2022/08/08 05:39:36;;;;;;;34.22;22.58;;;;;;;12.37;100.00;102297.13;10395292;28;20037;-73
2022/08/08 05:44:46;;;;;;;28.27;21.23;;;;;;;12.99;100.00;102303.53;10363999;28;20469;-74
2022/08/08 05:49:47;;;;;;;26.05;16.42;;;;;;;14.40;100.00;102306.41;10363087;28;20034;-75
2022/08/08 05:54:48;;;;;;;17.53;13.00;;;;;;;16.33;84.50;102303.84;10380808;28;20033;-75
2022/08/08 05:59:51;;;;;;;14.48;11.18;;;;;;;17.47;75.77;102299.19;10415804;28;20084;-74
2022/08/08 06:04:52;;;;;;;17.17;11.90;;;;;;;18.23;73.49;102304.94;10397437;28;20095;-76
2022/08/08 06:09:52;;;;;;;13.02;10.18;;;;;;;19.60;68.25;102308.06;10386369;28;20037;-75
2022/08/08 06:14:53;;;;;;;8.80;7.93;;;;;;;20.40;63.54;102316.78;10400414;28;20107;-77
2022/08/08 06:19:54;;;;;;;17.00;11.40;;;;;;;21.22;60.70;102307.56;10402635;28;20104;-77
2022/08/08 06:24:55;;;;;;;14.93;8.20;;;;;;;22.42;56.41;102311.34;10370215;28;20033;-77
2022/08/08 06:30:05;;;;;;;12.23;6.93;;;;;;;22.34;56.43;102313.84;10369135;28;20046;-78
2022/08/08 06:35:30;;;;;;;9.95;6.57;;;;;;;22.97;51.77;102316.94;10354479;28;20033;-77
2022/08/08 06:40:31;;;;;;;11.30;6.95;;;;;;;23.86;48.79;102314.03;10442017;28;20037;-78
2022/08/08 06:45:32;;;;;;;16.88;11.02;;;;;;;23.95;51.04;102315.03;10388673;28;20071;-77
2022/08/08 06:50:33;;;;;;;12.00;7.70;;;;;;;24.24;48.66;102318.16;10390730;28;20079;-79
2022/08/08 06:55:34;;;;;;;8.33;6.70;;;;;;;24.39;48.53;102312.13;10417531;28;20029;-75
2022/08/08 07:00:35;;;;;;;8.55;6.80;;;;;;;24.96;46.43;102316.38;10426335;28;20047;-77
2022/08/08 07:05:36;;;;;;;10.15;6.25;;;;;;;25.14;43.75;102324.59;10425398;28;20397;-77
2022/08/08 07:10:40;;;;;;;9.73;7.28;;;;;;;24.56;47.71;102335.53;10426104;28;20112;-78
2022/08/08 07:15:46;;;;;;;7.85;5.55;;;;;;;26.40;43.35;102333.63;10424754;28;20057;-79
2022/08/08 07:20:47;;;;;;;10.40;5.25;;;;;;;27.05;40.50;102341.94;10407896;28;20033;-77
2022/08/08 07:25:50;;;;;;;7.63;6.00;;;;;;;26.76;40.86;102339.13;10418019;28;20061;-79
2022/08/08 07:30:51;;;;;;;8.07;5.38;;;;;;;26.20;42.87;102347.84;10441896;28;20033;-77
2022/08/08 07:35:51;;;;;;;11.52;5.93;;;;;;;26.56;42.05;102339.94;10423468;28;20519;-77
2022/08/08 07:40:54;;;;;;;6.70;4.50;;;;;;;26.69;41.24;102338.22;10407920;28;20052;-78
2022/08/08 07:45:54;;;;;;;6.00;5.15;;;;;;;26.76;41.65;102348.09;10407469;28;20299;-79
2022/08/08 07:50:57;;;;;;;10.53;5.10;;;;;;;27.80;39.27;102347.38;10422740;28;20120;-80
2022/08/08 07:55:59;;;;;;;9.27;4.90;;;;;;;28.56;38.06;102356.19;10391358;28;20063;-78
2022/08/08 08:01:04;;;;;;;8.68;4.85;;;;;;;28.65;38.01;102363.31;10408676;28;20029;-79
2022/08/08 08:06:05;;;;;;;6.28;4.13;;;;;;;29.29;34.74;102354.91;10352784;28;20045;-78
2022/08/08 08:11:13;;;;;;;11.07;5.55;;;;;;;29.14;36.34;102366.66;10382225;28;20044;-79
2022/08/08 08:16:18;;;;;;;7.07;4.90;;;;;;;28.96;35.86;102365.00;10365069;28;20492;-82
2022/08/08 08:21:19;;;;;;;6.30;4.53;;;;;;;29.01;35.94;102368.56;10336837;28;20034;-80
2022/08/08 08:26:20;;;;;;;7.57;4.55;;;;;;;28.82;37.83;102368.66;10395498;28;20417;-80
2022/08/08 08:31:20;;;;;;;;;;;;;;;29.46;36.44;102360.16;10366849;28;20048;-81
2022/08/08 08:36:21;;;;;;;8.33;4.33;;;;;;;30.07;33.63;102368.63;10381191;28;20430;-80
2022/08/08 08:41:21;;;;;;;11.50;8.38;;;;;;;30.13;34.98;102365.88;10381946;28;20107;-77
2022/08/08 08:46:22;;;;;;;8.48;4.45;;;;;;;30.25;32.98;102361.25;10396543;28;20128;-77
2022/08/08 08:51:25;;;;;;;14.40;6.35;;;;;;;30.32;35.73;102362.97;10398115;28;20076;-78
2022/08/08 08:56:26;;;;;;;7.68;4.55;;;;;;;30.20;34.98;102363.09;10381584;28;20045;-81
2022/08/08 09:01:27;;;;;;;6.88;4.93;;;;;;;30.55;33.31;102359.09;10381841;28;20041;-80
2022/08/08 09:06:28;;;;;;;;;;;;;;;30.64;34.43;102364.41;10374509;28;20528;-78
2022/08/08 09:11:31;;;;;;;9.33;4.07;;;;;;;30.86;34.47;102364.09;10379482;28;20320;-83
2022/08/08 09:16:32;;;;;;;9.65;3.78;;;;;;;31.43;32.65;102368.69;10365397;28;20116;-85
2022/08/08 09:21:32;;;;;;;;;;;;;;;31.24;31.84;102369.91;10381612;28;20489;-81
2022/08/08 09:26:59;;;;;;;8.80;4.33;;;;;;;31.33;32.46;102373.34;10379002;28;19921;-78
2022/08/08 09:32:02;;;;;;;7.22;4.60;;;;;;;31.75;32.36;102366.38;10375658;28;20049;-78
2022/08/08 09:37:04;;;;;;;5.78;3.35;;;;;;;31.89;32.04;102368.84;10381796;28;20488;-79
2022/08/08 09:42:05;;;;;;;7.63;5.05;;;;;;;32.42;28.34;102360.59;10386081;28;20382;-78
2022/08/08 09:47:06;;;;;;;;;;;;;;;32.11;30.82;102366.59;10389023;28;20041;-78
2022/08/08 09:52:06;;;;;;;8.80;4.25;;;;;;;32.77;29.08;102364.34;10390088;28;19953;-78
2022/08/08 09:57:08;;;;;;;;;;;;;;;33.24;29.30;102375.06;10372395;28;20042;-78
2022/08/08 10:02:18;;;;;;;4.75;3.88;;;;;;;33.51;27.78;102367.19;10406060;28;19971;-78
2022/08/08 10:07:18;;;;;;;5.25;3.30;;;;;;;33.23;28.84;102370.56;10411953;28;20044;-78
2022/08/08 10:12:19;;;;;;;5.30;3.47;;;;;;;33.81;26.16;102367.31;10429486;28;20036;-78
2022/08/08 10:17:19;;;;;;;;;;;;;;;33.79;26.30;102360.13;10412967;28;20044;-78
2022/08/08 10:22:20;;;;;;;7.07;3.80;;;;;;;33.28;27.31;102356.88;10428474;28;20363;-78
2022/08/08 10:27:21;;;;;;;;;;;;;;;33.30;27.22;102359.56;10412927;28;20127;-78
2022/08/08 10:32:31;;;;;;;5.07;3.65;;;;;;;32.64;28.96;102362.84;10394099;28;19955;-79
2022/08/08 10:37:32;;;;;;;4.50;3.00;;;;;;;33.50;28.39;102356.34;10386612;28;20453;-78
2022/08/08 10:42:34;;;;;;;10.25;4.07;;;;;;;33.64;26.99;102340.59;10424080;28;20048;-79
2022/08/08 10:47:35;;;;;;;6.75;3.75;;;;;;;33.47;27.33;102351.00;10398385;28;20551;-78
2022/08/08 10:52:37;;;;;;;;;;;;;;;33.31;26.17;102342.34;10368958;28;20380;-78
2022/08/08 10:57:43;;;;;;;6.82;3.50;;;;;;;33.18;27.52;102355.31;10399391;28;20451;-79
2022/08/08 11:02:44;;;;;;;9.95;4.55;;;;;;;33.05;26.57;102349.31;10393893;28;20046;-78
2022/08/08 11:07:48;;;;;;;;;;;;;;;33.59;25.97;102338.97;10403109;28;20057;-76
2022/08/08 11:12:56;;;;;;;7.15;3.40;;;;;;;33.63;24.99;102337.94;10402328;28;20380;-78
2022/08/08 11:17:57;;;;;;;5.38;3.05;;;;;;;32.68;26.71;102333.88;10401168;28;20460;-78
2022/08/08 11:23:00;;;;;;;4.60;2.20;;;;;;;32.79;27.03;102335.38;10386378;28;20030;-76
2022/08/08 11:28:02;;;;;;;6.07;3.03;;;;;;;32.70;28.21;102326.59;10385860;28;20116;-77
2022/08/08 11:33:03;;;;;;;5.47;2.80;;;;;;;32.86;25.93;102336.19;10404107;28;20037;-76
2022/08/08 11:38:04;;;;;;;7.82;2.47;;;;;;;32.91;24.96;102325.22;10401773;28;20401;-76
2022/08/08 11:43:05;;;;;;;3.25;2.15;;;;;;;33.37;25.69;102318.66;10384626;28;20037;-77
2022/08/08 11:48:05;;;;;;;6.47;2.20;;;;;;;33.64;26.31;102321.59;10384795;28;20133;-75
2022/08/08 11:53:07;;;;;;;6.00;2.22;;;;;;;33.57;25.31;102320.00;10384459;28;20474;-77
2022/08/08 11:58:08;;;;;;;3.35;2.45;;;;;;;33.26;26.00;102314.44;10384536;28;20094;-77
2022/08/08 12:03:18;;;;;;;4.55;2.03;;;;;;;33.48;24.71;102322.94;10399153;28;20034;-77
2022/08/08 12:08:38;;;;;;;6.28;2.10;;;;;;;33.43;24.52;102314.03;10400079;28;20048;-77
2022/08/08 12:13:39;;;;;;;2.63;1.60;;;;;;;33.96;22.87;102306.28;10385170;28;20187;-77
2022/08/08 12:18:51;;;;;;;3.63;1.75;;;;;;;33.39;23.49;102307.78;10399098;28;20084;-78
2022/08/08 12:24:14;;;;;;;2.05;1.35;;;;;;;32.60;25.36;102307.84;10362217;28;20042;-80
2022/08/08 12:29:31;;;;;;;2.88;1.30;;;;;;;33.17;24.15;102304.72;10385331;28;20123;-80
2022/08/08 12:34:35;;;;;;;3.30;1.58;;;;;;;33.73;25.13;102296.06;10396311;28;20132;-80
2022/08/08 12:39:37;;;;;;;2.40;1.63;;;;;;;34.04;22.17;102294.31;10399216;28;20029;-80
2022/08/08 12:44:40;;;;;;;3.45;1.02;;;;;;;33.69;22.77;102294.34;10380047;28;20037;-78
2022/08/08 12:49:43;;;;;;;1.90;0.95;;;;;;;33.42;25.25;102293.25;10399243;28;20087;-79
2022/08/08 12:54:44;;;;;;;3.58;1.40;;;;;;;33.45;24.40;102298.59;10382596;28;20106;-79
2022/08/08 12:59:50;;;;;;;3.00;1.20;;;;;;;33.30;25.54;102289.91;10400726;28;20033;-81
2022/08/08 13:04:51;;;;;;;2.33;1.40;;;;;;;32.98;25.75;102286.19;10366713;28;20489;-79
2022/08/08 13:09:52;;;;;;;3.38;1.15;;;;;;;32.54;25.94;102283.59;10382117;28;20038;-80
2022/08/08 13:14:54;;;;;;;2.28;1.00;;;;;;;33.09;26.37;102275.97;10400359;28;20038;-79
2022/08/08 13:19:55;;;;;;;2.60;1.35;;;;;;;33.31;26.39;102272.69;10397615;28;20385;-79
2022/08/08 13:24:59;;;;;;;3.70;1.23;;;;;;;32.01;27.60;102279.25;10392575;28;20121;-78
2022/08/08 13:30:04;;;;;;;3.47;1.55;;;;;;;31.17;30.90;102277.16;10383330;28;20069;-79
2022/08/08 13:35:09;;;;;;;2.65;1.20;;;;;;;32.17;28.63;102273.53;10390796;28;20409;-78
2022/08/08 13:40:10;;;;;;;2.67;1.00;;;;;;;32.29;27.32;102275.06;10369503;28;20041;-80
2022/08/08 13:45:11;;;;;;;2.53;1.63;;;;;;;31.84;29.96;102281.41;10405188;28;20091;-80
2022/08/08 13:50:11;;;;;;;;;;;;;;;32.74;27.29;102274.09;10388214;28;20117;-80
2022/08/08 13:55:12;;;;;;;1.50;0.90;;;;;;;33.18;27.84;102263.09;10388275;28;19923;-81
2022/08/08 14:00:19;;;;;;;3.15;1.60;;;;;;;33.33;26.72;102256.41;10428116;28;20136;-79
2022/08/08 14:05:20;;;;;;;3.35;1.33;;;;;;;33.00;26.30;102265.34;10422392;28;20485;-77
2022/08/08 14:10:21;;;;;;;4.70;1.02;;;;;;;31.48;29.44;102265.81;10413133;28;20132;-79
2022/08/08 14:15:26;;;;;;;2.97;1.20;;;;;;;32.35;28.84;102265.03;10413125;28;20083;-81
2022/08/08 14:20:34;;;;;;;7.45;1.23;;;;;;;32.72;27.00;102259.69;10409547;28;20045;-79
2022/08/08 14:25:54;;;;;;;2.35;1.35;;;;;;;32.14;28.70;102266.34;10395696;28;20491;-80
2022/08/08 14:30:55;;;;;;;4.82;1.60;;;;;;;32.02;27.81;102253.97;10379649;28;20397;-78
2022/08/08 14:36:06;;;;;;;2.67;1.00;;;;;;;30.67;29.33;102264.41;10417090;28;20393;-78
2022/08/08 14:41:19;;;;;;;5.15;1.65;;;;;;;30.73;30.86;102260.72;10405392;28;20493;-78
2022/08/08 14:46:27;;;;;;;7.57;1.52;;;;;;;29.85;30.39;102263.59;10404442;28;20071;-77
2022/08/08 14:51:37;;;;;;;11.65;1.52;;;;;;;29.92;31.24;102263.53;10420209;28;20488;-78
2022/08/08 14:56:40;;;;;;;4.03;1.52;;;;;;;30.51;30.19;102261.00;10409450;28;20041;-76
2022/08/08 15:01:45;;;;;;;3.67;1.45;;;;;;;29.47;32.11;102264.00;10400940;28;20049;-77
2022/08/08 15:06:45;;;;;;;2.35;1.00;;;;;;;29.80;30.66;102264.56;10395284;28;20199;-77
2022/08/08 15:11:49;;;;;;;1.60;1.00;;;;;;;27.20;35.70;102268.50;10403149;28;20075;-79
2022/08/08 15:16:53;;;;;;;7.07;2.25;;;;;;;27.96;33.50;102268.44;10397894;28;20151;-76
2022/08/08 15:21:54;;;;;;;2.35;1.30;;;;;;;28.60;33.12;102265.47;10426987;28;20045;-76
2022/08/08 15:26:55;;;;;;;4.00;2.20;;;;;;;28.52;33.23;102264.63;10423652;28;20033;-77
2022/08/08 15:31:58;;;;;;;4.30;2.10;;;;;;;28.02;34.70;102261.25;10403700;28;20485;-77
2022/08/08 15:37:00;;;;;;;3.42;1.50;;;;;;;26.89;35.73;102249.66;10424636;28;20056;-76
2022/08/08 15:42:01;;;;;;;44.10;33.92;;;;;;;25.84;38.45;102251.91;10421462;28;20040;-77
2022/08/08 15:47:06;;;;;;;5.73;1.90;;;;;;;25.35;38.65;102248.88;10440327;28;20108;-77
2022/08/08 15:52:07;;;;;;;2.60;1.58;;;;;;;25.06;38.75;102252.22;10428942;28;20055;-77
2022/08/08 15:57:08;;;;;;;3.42;1.50;;;;;;;24.85;39.56;102243.97;10424745;28;20060;-78
2022/08/08 16:02:09;;;;;;;3.92;1.27;;;;;;;24.82;39.39;102242.16;10405825;28;20044;-77
2022/08/08 16:07:11;;;;;;;3.97;1.75;;;;;;;24.76;39.99;102236.75;10386323;28;20455;-77
2022/08/08 16:12:11;;;;;;;3.00;1.90;;;;;;;24.59;39.86;102234.75;10442744;28;20116;-78
2022/08/08 16:17:12;;;;;;;3.77;1.60;;;;;;;24.42;41.81;102237.25;10405627;28;20039;-79
2022/08/08 16:22:12;;;;;;;2.40;0.90;;;;;;;24.44;42.07;102239.94;10420531;28;20033;-76
2022/08/08 16:27:13;;;;;;;3.27;1.20;;;;;;;24.30;40.10;102229.97;10438476;28;20068;-76
2022/08/08 16:32:13;;;;;;;3.27;1.23;;;;;;;24.13;41.00;102229.75;10438742;28;20773;-76
2022/08/08 16:37:14;;;;;;;4.73;1.53;;;;;;;24.05;40.32;102232.31;10438433;28;20090;-77
2022/08/08 16:42:14;;;;;;;4.30;1.30;;;;;;;23.78;41.98;102229.25;10440273;28;20473;-76
2022/08/08 16:47:19;;;;;;;4.07;1.70;;;;;;;23.81;42.01;102237.31;10422867;28;20231;-76
2022/08/08 16:52:19;;;;;;;4.18;1.70;;;;;;;23.68;41.87;102236.25;10437898;28;20516;-76
2022/08/08 16:57:20;;;;;;;2.43;1.30;;;;;;;23.59;42.11;102235.22;10440372;28;20124;-77
2022/08/08 17:02:21;;;;;;;1.40;1.20;;;;;;;23.54;42.28;102236.94;10439329;28;20514;-77
2022/08/08 17:07:21;;;;;;;4.57;1.20;;;;;;;23.42;42.24;102242.97;10387742;28;20057;-77
2022/08/08 17:12:22;;;;;;;6.70;3.57;;;;;;;23.36;42.58;102240.19;10438197;28;20050;-76
2022/08/08 17:17:25;;;;;;;8.27;4.20;;;;;;;23.08;43.03;102247.69;10415460;28;20053;-76
2022/08/08 17:22:25;;;;;;;6.35;3.95;;;;;;;23.05;43.34;102241.44;10437731;28;20073;-76
2022/08/08 17:27:29;;;;;;;8.70;5.30;;;;;;;23.01;43.47;102251.13;10435783;28;20120;-77
2022/08/08 17:32:30;;;;;;;9.43;2.13;;;;;;;22.87;43.74;102249.13;10408395;28;20060;-78
2022/08/08 17:37:30;;;;;;;2.87;1.63;;;;;;;22.68;43.64;102245.22;10437355;28;20041;-79
2022/08/08 17:42:34;;;;;;;4.43;1.77;;;;;;;22.53;45.01;102245.81;10438877;28;20395;-78
2022/08/08 17:47:34;;;;;;;3.80;1.33;;;;;;;22.21;46.06;102254.00;10438136;28;20485;-78
2022/08/08 17:52:37;;;;;;;4.10;1.30;;;;;;;22.02;45.77;102266.03;10420639;28;20033;-78
2022/08/08 17:57:38;;;;;;;6.32;2.17;;;;;;;21.95;46.41;102266.78;10438782;28;20033;-76
2022/08/08 18:02:38;;;;;;;4.15;1.90;;;;;;;21.94;46.33;102267.63;10441991;28;20569;-77
2022/08/08 18:07:39;;;;;;;4.32;1.70;;;;;;;21.88;46.42;102265.72;10445757;28;20123;-78
2022/08/08 18:12:42;;;;;;;3.70;1.75;;;;;;;21.50;47.25;102273.66;10426666;28;20508;-78
2022/08/08 18:17:44;;;;;;;3.63;1.52;;;;;;;21.15;49.70;102271.00;10409962;28;20120;-77
2022/08/08 18:22:44;;;;;;;7.73;2.73;;;;;;;20.79;51.16;102278.94;10443939;28;20033;-78
2022/08/08 18:27:45;;;;;;;7.68;2.17;;;;;;;20.48;52.68;102283.34;10444068;28;20033;-78
2022/08/08 18:32:47;;;;;;;6.00;1.40;;;;;;;20.36;51.96;102285.66;10444482;28;20032;-78
2022/08/08 18:37:48;;;;;;;4.70;1.67;;;;;;;20.32;51.95;102287.34;10443228;28;20045;-78
2022/08/08 18:42:48;;;;;;;5.18;1.75;;;;;;;20.00;53.66;102289.00;10443729;28;20037;-78
2022/08/08 18:47:49;;;;;;;3.40;1.30;;;;;;;19.64;54.48;102290.50;10444167;28;20112;-78
2022/08/08 18:52:53;;;;;;;6.13;1.43;;;;;;;19.29;57.67;102301.72;10443320;28;20124;-78
2022/08/08 18:57:54;;;;;;;4.15;1.70;;;;;;;19.01;56.93;102311.38;10425677;28;20044;-78
2022/08/08 19:02:55;;;;;;;3.08;2.10;;;;;;;19.13;56.63;102310.91;10442833;28;20111;-78
2022/08/08 19:07:56;;;;;;;2.47;1.37;;;;;;;18.82;57.77;102322.13;10410021;28;20460;-78
2022/08/08 19:12:56;;;;;;;9.63;2.95;;;;;;;18.34;59.73;102330.09;10439179;28;20041;-78
2022/08/08 19:17:57;;;;;;;4.20;1.70;;;;;;;17.96;61.27;102336.47;10423987;28;20049;-77
2022/08/08 19:22:58;;;;;;;5.63;2.60;;;;;;;17.68;63.19;102345.94;10388331;28;20044;-78
2022/08/08 19:28:01;;;;;;;7.07;2.00;;;;;;;17.54;63.73;102356.84;10443285;28;20083;-78
2022/08/08 19:33:02;;;;;;;15.18;4.85;;;;;;;17.34;65.00;102360.38;10440330;28;20037;-78
2022/08/08 19:38:02;;;;;;;2.60;2.00;;;;;;;17.15;65.48;102362.22;10424754;28;20045;-78
2022/08/08 19:43:06;;;;;;;4.53;3.03;;;;;;;17.03;66.01;102371.41;10399937;28;20050;-78
2022/08/08 19:48:07;;;;;;;4.97;2.38;;;;;;;16.85;67.09;102371.44;10367347;28;20037;-78
2022/08/08 19:53:08;;;;;;;2.83;1.70;;;;;;;16.72;67.89;102379.66;10394970;28;20152;-78
2022/08/08 19:58:08;;;;;;;4.60;2.30;;;;;;;16.62;69.23;102383.59;10398662;28;20087;-78
2022/08/08 20:03:09;;;;;;;9.13;4.22;;;;;;;16.54;70.21;102387.59;10430025;28;20472;-77
2022/08/08 20:08:10;;;;;;;4.45;3.38;;;;;;;16.86;69.08;102389.13;10364515;28;20049;-78
2022/08/08 20:13:11;;;;;;;3.75;2.47;;;;;;;17.11;68.31;102389.34;10370082;28;20046;-77
2022/08/08 20:18:11;;;;;;;5.50;2.13;;;;;;;17.26;67.99;102391.81;10381033;28;20065;-77
2022/08/08 20:23:12;;;;;;;5.53;2.00;;;;;;;17.23;68.17;102397.84;10357902;28;20393;-77
2022/08/08 20:28:12;;;;;;;5.30;2.35;;;;;;;17.19;68.96;102402.94;10413419;28;20124;-77
2022/08/08 20:33:13;;;;;;;5.90;3.00;;;;;;;17.34;68.55;102402.72;10366839;28;20065;-77
2022/08/08 20:38:14;;;;;;;7.57;2.67;;;;;;;17.15;69.07;102405.44;10398503;28;20445;-78
2022/08/08 20:43:14;;;;;;;3.85;2.15;;;;;;;17.08;69.61;102406.00;10399696;28;20049;-78
2022/08/08 20:48:15;;;;;;;7.10;2.22;;;;;;;17.03;70.06;102413.72;10406561;28;20112;-78
2022/08/08 20:53:19;;;;;;;6.00;2.47;;;;;;;16.93;70.80;102400.88;10399917;28;20132;-77
2022/08/08 20:58:20;;;;;;;4.18;2.78;;;;;;;16.81;71.55;102405.59;10391860;28;20111;-78
2022/08/08 21:03:23;;;;;;;5.20;2.40;;;;;;;16.77;71.90;102411.56;10398202;28;20180;-78
2022/08/08 21:08:23;;;;;;;4.43;2.40;;;;;;;16.70;72.05;102406.00;10394847;28;20175;-78
2022/08/08 21:13:24;;;;;;;5.47;2.20;;;;;;;16.53;72.85;102409.59;10399975;28;20615;-78
2022/08/08 21:18:24;;;;;;;4.38;2.45;;;;;;;16.50;73.11;102407.72;10367146;28;20520;-78
2022/08/08 21:23:29;;;;;;;3.72;3.08;;;;;;;16.38;73.79;102408.00;10396521;28;20121;-77
2022/08/08 21:28:29;;;;;;;5.57;1.80;;;;;;;16.17;74.72;102413.16;10421942;28;20072;-78
2022/08/08 21:33:30;;;;;;;3.40;2.53;;;;;;;15.92;75.82;102416.31;10403748;28;20136;-78
2022/08/08 21:38:31;;;;;;;4.97;2.65;;;;;;;15.92;75.94;102411.03;10444698;28;20389;-77
2022/08/08 21:43:31;;;;;;;4.88;2.58;;;;;;;15.75;76.51;102416.31;10413288;28;20122;-78
2022/08/08 21:48:32;;;;;;;3.75;3.10;;;;;;;15.53;77.33;102420.50;10429278;28;20493;-77
2022/08/08 21:53:33;;;;;;;4.47;2.85;;;;;;;15.44;78.12;102419.13;10445736;28;20037;-78
2022/08/08 21:58:34;;;;;;;6.25;2.50;;;;;;;15.27;78.60;102421.78;10428557;28;20095;-77
2022/08/08 22:03:34;;;;;;;5.38;2.63;;;;;;;15.10;80.06;102426.13;10428646;28;20167;-77
2022/08/08 22:08:35;;;;;;;8.13;3.00;;;;;;;14.92;80.10;102436.59;10410139;28;20120;-77
2022/08/08 22:13:35;;;;;;;9.77;3.63;;;;;;;14.76;81.42;102441.03;10427414;28;20481;-76
2022/08/08 22:18:36;;;;;;;5.55;2.58;;;;;;;14.67;81.69;102445.75;10427372;28;20132;-77
2022/08/08 22:23:37;;;;;;;5.00;3.42;;;;;;;14.52;82.14;102436.16;10445063;28;20481;-77
2022/08/08 22:28:37;;;;;;;4.28;2.50;;;;;;;14.38;83.27;102439.75;10427031;28;20052;-77
2022/08/08 22:33:40;;;;;;;5.70;3.20;;;;;;;14.34;83.72;102433.38;10425441;28;20029;-77
2022/08/08 22:38:40;;;;;;;;;;;;;;;14.32;83.75;102440.28;10427865;28;20136;-77
2022/08/08 22:43:41;;;;;;;7.22;3.58;;;;;;;14.28;83.97;102434.75;10425670;28;20019;-77
2022/08/08 22:48:44;;;;;;;5.97;3.17;;;;;;;14.16;84.33;102443.75;10408638;28;20558;-77
2022/08/08 22:53:44;;;;;;;7.40;3.60;;;;;;;14.02;85.00;102435.03;10427113;28;20377;-77
2022/08/08 22:58:45;;;;;;;7.93;4.00;;;;;;;13.86;85.38;102450.75;10409636;28;20036;-77
2022/08/08 23:03:45;;;;;;;7.88;4.28;;;;;;;13.76;86.46;102460.72;10410684;28;20094;-76
2022/08/08 23:08:46;;;;;;;6.95;3.70;;;;;;;13.69;86.88;102455.91;10424595;28;20117;-76
2022/08/08 23:13:46;;;;;;;5.63;4.22;;;;;;;13.61;87.07;102459.81;10443944;28;20489;-76